Time;durP1;ratioP1;P1;durP2;ratioP2;P2;SDS_P1;SDS_P2;PMS_P1;PMS_P2;Temp;Humidity;BMP_temperature;BMP_pressure;BME280_temperature;BME280_humidity;BME280_pressure;Samples;Min_cycle;Max_cycle;Signal;HPM_P1;HPM_P2
2022/12/08 00:01:33;;;;;;;11.90;5.65;;;;;;;;;;5076340;28;20088;-83
2022/12/08 00:04:00;;;;;;;4.82;4.05;;;;;;;;;;5075900;28;20490;-82
2022/12/08 00:09:29;;;;;;;7.60;5.60;;;;;;;;;;5076484;28;20499;-84
2022/12/08 00:12:06;;;;;;;9.02;5.53;;;;;;;;;;5076249;28;20082;-83
2022/12/08 00:14:37;;;;;;;8.95;5.72;;;;;;;;;;5074392;28;20032;-83
2022/12/08 00:17:05;;;;;;;5.80;4.45;;;;;;;;;;5074719;28;20029;-82
2022/12/08 00:19:31;;;;;;;6.60;3.67;;;;;;;;;;5076145;28;20429;-81
2022/12/08 00:21:57;;;;;;;4.10;3.05;;;;;;;;;;5074804;28;20465;-84
2022/12/08 00:24:28;;;;;;;12.20;6.50;;;;;;;;;;5076092;28;20044;-82
2022/12/08 00:26:53;;;;;;;6.82;4.38;;;;;;;;;;5075593;28;20024;-83
2022/12/08 00:29:18;;;;;;;5.18;3.22;;;;;;;;;;5075828;28;20070;-84
2022/12/08 00:31:44;;;;;;;9.38;4.40;;;;;;;;;;5076027;28;20069;-81
2022/12/08 00:34:11;;;;;;;6.10;4.22;;;;;;;;;;5075304;28;20024;-82
2022/12/08 00:36:37;;;;;;;12.30;4.68;;;;;;;;;;5073475;28;20058;-81
2022/12/08 00:39:03;;;;;;;4.07;2.55;;;;;;;;;;5073179;28;20433;-84
2022/12/08 00:44:15;;;;;;;6.88;3.90;;;;;;;;;;5072437;28;20115;-83
2022/12/08 00:46:41;;;;;;;7.60;5.65;;;;;;;;;;5073437;28;20051;-80
2022/12/08 00:49:07;;;;;;;7.68;4.80;;;;;;;;;;5074503;28;20423;-84
2022/12/08 00:51:33;;;;;;;7.25;3.67;;;;;;;;;;5074424;28;20067;-82
2022/12/08 00:53:58;;;;;;;5.57;3.80;;;;;;;;;;5074390;28;20036;-82
2022/12/08 00:56:25;;;;;;;6.43;3.65;;;;;;;;;;5074285;28;20107;-83
2022/12/08 00:58:50;;;;;;;4.78;3.92;;;;;;;;;;5073121;28;20028;-82
2022/12/08 01:01:16;;;;;;;8.15;3.92;;;;;;;;;;5072822;28;20036;-83
2022/12/08 01:03:42;;;;;;;5.38;3.40;;;;;;;;;;5074647;28;20029;-84
2022/12/08 01:06:08;;;;;;;7.43;3.78;;;;;;;;;;5072771;28;20032;-84
2022/12/08 01:08:37;;;;;;;5.22;4.63;;;;;;;;;;5073777;28;20039;-84
2022/12/08 01:11:04;;;;;;;4.78;3.33;;;;;;;;;;5075001;28;20472;-82
2022/12/08 01:13:30;;;;;;;8.10;4.00;;;;;;;;;;5075594;28;20094;-84
2022/12/08 01:15:55;;;;;;;3.70;2.88;;;;;;;;;;5074773;28;20021;-83
2022/12/08 01:18:21;;;;;;;2.50;2.20;;;;;;;;;;5074692;28;20024;-84
2022/12/08 01:20:46;;;;;;;11.75;2.65;;;;;;;;;;5073896;28;20503;-84
2022/12/08 01:23:11;;;;;;;3.22;2.67;;;;;;;;;;5074055;28;20107;-81
2022/12/08 01:25:37;;;;;;;11.07;3.63;;;;;;;;;;5074310;28;20072;-81
2022/12/08 01:28:02;;;;;;;3.67;2.17;;;;;;;;;;5074368;28;20016;-82
2022/12/08 01:30:28;;;;;;;4.80;2.25;;;;;;;;;;5074079;28;20032;-82
2022/12/08 01:32:53;;;;;;;6.53;3.05;;;;;;;;;;5073070;28;20028;-82
2022/12/08 01:35:18;;;;;;;4.07;3.33;;;;;;;;;;5074160;28;20020;-83
2022/12/08 01:37:44;;;;;;;3.25;2.08;;;;;;;;;;5073267;28;20020;-81
2022/12/08 01:40:09;;;;;;;4.90;2.80;;;;;;;;;;5071932;28;20344;-81
2022/12/08 01:42:37;;;;;;;4.75;2.78;;;;;;;;;;5072542;28;20131;-82
2022/12/08 01:45:25;;;;;;;17.45;3.50;;;;;;;;;;5073448;28;20043;-82
2022/12/08 01:47:55;;;;;;;4.28;2.67;;;;;;;;;;5073481;28;20050;-82
2022/12/08 01:50:21;;;;;;;3.00;2.70;;;;;;;;;;5073785;28;20028;-81
2022/12/08 01:52:52;;;;;;;3.42;1.50;;;;;;;;;;5073125;28;20025;-83
2022/12/08 01:55:29;;;;;;;4.43;2.70;;;;;;;;;;5070831;28;20024;-81
2022/12/08 01:58:00;;;;;;;2.95;2.42;;;;;;;;;;5072568;28;20052;-83
2022/12/08 02:00:26;;;;;;;3.20;2.15;;;;;;;;;;5072803;28;20029;-82
2022/12/08 02:02:59;;;;;;;3.20;1.63;;;;;;;;;;5073607;28;20051;-82
2022/12/08 02:05:27;;;;;;;3.53;2.85;;;;;;;;;;5072074;28;20026;-81
2022/12/08 02:07:54;;;;;;;2.97;1.90;;;;;;;;;;5074493;28;20012;-82
2022/12/08 02:10:21;;;;;;;6.03;2.60;;;;;;;;;;5074083;28;20059;-82
2022/12/08 02:12:50;;;;;;;1.98;1.75;;;;;;;;;;5073597;28;20024;-83
2022/12/08 02:15:17;;;;;;;2.00;1.80;;;;;;;;;;5073527;28;20024;-82
2022/12/08 02:17:45;;;;;;;4.82;3.55;;;;;;;;;;5073889;28;20024;-84
2022/12/08 02:20:16;;;;;;;3.78;3.38;;;;;;;;;;5075467;28;20059;-84
2022/12/08 02:22:50;;;;;;;3.05;2.65;;;;;;;;;;5077617;28;20028;-82
2022/12/08 02:25:43;;;;;;;3.38;2.70;;;;;;;;;;5075881;28;20024;-84
2022/12/08 02:28:29;;;;;;;4.72;3.13;;;;;;;;;;5076023;28;20098;-84
2022/12/08 02:30:58;;;;;;;3.33;2.92;;;;;;;;;;5076897;28;20055;-83
2022/12/08 02:33:48;;;;;;;3.85;2.72;;;;;;;;;;5073591;28;20388;-84
2022/12/08 02:36:38;;;;;;;6.60;2.63;;;;;;;;;;5078376;28;20054;-84
2022/12/08 02:39:18;;;;;;;2.45;2.03;;;;;;;;;;5077200;28;20123;-83
2022/12/08 02:41:50;;;;;;;3.97;2.70;;;;;;;;;;5077690;28;20032;-82
2022/12/08 02:44:28;;;;;;;3.65;2.75;;;;;;;;;;5077954;28;20027;-83
2022/12/08 02:47:18;;;;;;;2.30;2.13;;;;;;;;;;5077261;28;20020;-84
2022/12/08 02:49:43;;;;;;;3.33;1.95;;;;;;;;;;5076214;28;20028;-82
2022/12/08 02:52:11;;;;;;;1.55;1.45;;;;;;;;;;5077539;28;20039;-84
2022/12/08 02:54:40;;;;;;;1.15;1.05;;;;;;;;;;5077516;28;20025;-84
2022/12/08 02:57:38;;;;;;;3.58;2.47;;;;;;;;;;5077501;28;20415;-84
2022/12/08 03:00:15;;;;;;;3.63;1.95;;;;;;;;;;5075059;28;20060;-81
2022/12/08 03:02:46;;;;;;;5.43;4.28;;;;;;;;;;5071592;28;20033;-84
2022/12/08 03:05:30;;;;;;;4.05;2.50;;;;;;;;;;5078516;28;20037;-83
2022/12/08 03:08:13;;;;;;;5.30;3.20;;;;;;;;;;5076601;28;20073;-83
2022/12/08 03:11:00;;;;;;;4.68;2.67;;;;;;;;;;5078238;28;20036;-81
2022/12/08 03:13:40;;;;;;;4.38;2.42;;;;;;;;;;5077414;28;20077;-84
2022/12/08 03:16:08;;;;;;;1.98;1.83;;;;;;;;;;5107743;28;20028;-82
2022/12/08 03:18:38;;;;;;;2.50;1.98;;;;;;;;;;5076275;28;20039;-84
2022/12/08 03:21:06;;;;;;;3.55;2.53;;;;;;;;;;5077401;28;20112;-84
2022/12/08 03:23:33;;;;;;;4.85;2.42;;;;;;;;;;5076906;28;20366;-83
2022/12/08 03:26:15;;;;;;;4.00;2.33;;;;;;;;;;5076973;28;20044;-85
2022/12/08 03:28:40;;;;;;;6.28;2.63;;;;;;;;;;5076838;28;20028;-84
2022/12/08 03:31:10;;;;;;;5.50;2.95;;;;;;;;;;5074372;28;20103;-85
2022/12/08 03:33:39;;;;;;;6.45;3.33;;;;;;;;;;5074964;28;20028;-83
2022/12/08 03:36:07;;;;;;;7.22;3.95;;;;;;;;;;5075440;28;20042;-82
2022/12/08 03:38:38;;;;;;;4.13;2.97;;;;;;;;;;5074795;28;20108;-83
2022/12/08 03:41:18;;;;;;;2.53;1.92;;;;;;;;;;5076254;28;20361;-82
2022/12/08 03:43:58;;;;;;;3.13;2.22;;;;;;;;;;5073125;28;20552;-85
2022/12/08 03:46:26;;;;;;;4.28;2.33;;;;;;;;;;5076498;28;20030;-83
2022/12/08 03:48:52;;;;;;;4.00;2.00;;;;;;;;;;5077264;28;20620;-83
2022/12/08 03:51:18;;;;;;;2.70;1.67;;;;;;;;;;5075333;28;20028;-83
2022/12/08 03:53:44;;;;;;;4.00;2.92;;;;;;;;;;5076800;28;20020;-85
2022/12/08 03:56:23;;;;;;;3.90;2.45;;;;;;;;;;5075702;28;20036;-81
2022/12/08 03:58:49;;;;;;;2.28;1.75;;;;;;;;;;5073240;28;20051;-82
2022/12/08 04:01:14;;;;;;;3.38;2.30;;;;;;;;;;5073317;28;20071;-83
2022/12/08 04:03:39;;;;;;;3.78;2.67;;;;;;;;;;5073896;28;20407;-81
2022/12/08 04:06:06;;;;;;;3.65;2.03;;;;;;;;;;5072728;28;20020;-79
2022/12/08 04:08:31;;;;;;;3.33;1.83;;;;;;;;;;5073020;28;20028;-81
2022/12/08 04:10:57;;;;;;;8.00;3.22;;;;;;;;;;5072584;28;20043;-81
2022/12/08 04:13:22;;;;;;;4.45;2.90;;;;;;;;;;5069758;28;20025;-82
2022/12/08 04:15:48;;;;;;;4.93;2.45;;;;;;;;;;5071240;28;20508;-78
2022/12/08 04:18:14;;;;;;;4.50;3.22;;;;;;;;;;5070474;28;20480;-80
2022/12/08 04:20:40;;;;;;;7.95;3.92;;;;;;;;;;5070389;28;20031;-83
2022/12/08 04:23:07;;;;;;;7.05;5.18;;;;;;;;;;5071939;28;20086;-83
2022/12/08 04:25:32;;;;;;;9.50;6.03;;;;;;;;;;5072539;28;20056;-81
2022/12/08 04:27:58;;;;;;;5.07;3.40;;;;;;;;;;5072050;28;20055;-82
2022/12/08 04:30:23;;;;;;;3.13;2.83;;;;;;;;;;5072127;28;20024;-81
2022/12/08 04:32:49;;;;;;;3.60;2.30;;;;;;;;;;5071218;28;20052;-82
2022/12/08 04:35:14;;;;;;;1.95;1.80;;;;;;;;;;5070904;28;20024;-83
2022/12/08 04:37:40;;;;;;;4.80;3.90;;;;;;;;;;5072593;28;20387;-81
2022/12/08 04:40:06;;;;;;;2.42;2.17;;;;;;;;;;5070625;28;20032;-81
2022/12/08 04:42:31;;;;;;;7.97;4.32;;;;;;;;;;5072131;28;20426;-82
2022/12/08 04:44:56;;;;;;;6.03;4.03;;;;;;;;;;5071245;28;20083;-82
2022/12/08 04:47:22;;;;;;;6.93;4.15;;;;;;;;;;5072164;28;20028;-82
2022/12/08 04:49:47;;;;;;;8.57;5.78;;;;;;;;;;5071409;28;20020;-80
2022/12/08 04:52:12;;;;;;;4.70;3.80;;;;;;;;;;5071606;28;20070;-80
2022/12/08 04:54:38;;;;;;;6.35;4.10;;;;;;;;;;5072760;28;20476;-81
2022/12/08 04:57:03;;;;;;;5.70;3.58;;;;;;;;;;5071213;28;20043;-83
2022/12/08 04:59:29;;;;;;;5.53;3.70;;;;;;;;;;5070348;28;20039;-84
2022/12/08 05:01:54;;;;;;;6.10;5.45;;;;;;;;;;5070681;28;20032;-83
2022/12/08 05:04:19;;;;;;;4.43;2.72;;;;;;;;;;5070889;28;20020;-84
2022/12/08 05:06:45;;;;;;;5.60;4.43;;;;;;;;;;5071955;28;20023;-85
2022/12/08 05:09:10;;;;;;;9.00;5.78;;;;;;;;;;5070641;28;20025;-83
2022/12/08 05:11:40;;;;;;;11.18;5.53;;;;;;;;;;5070956;28;20099;-82
2022/12/08 05:14:09;;;;;;;9.02;6.50;;;;;;;;;;5070898;28;20054;-80
2022/12/08 05:16:37;;;;;;;13.82;6.57;;;;;;;;;;5072219;28;20058;-82
2022/12/08 05:19:02;;;;;;;8.45;6.05;;;;;;;;;;5071660;28;20024;-80
2022/12/08 05:21:28;;;;;;;5.32;3.53;;;;;;;;;;5072389;28;20036;-81
2022/12/08 05:23:53;;;;;;;9.88;7.07;;;;;;;;;;5071789;28;20040;-83
2022/12/08 05:26:19;;;;;;;9.80;4.35;;;;;;;;;;5071984;28;20353;-83
2022/12/08 05:28:44;;;;;;;5.60;4.15;;;;;;;;;;5070221;28;20029;-82
2022/12/08 05:31:14;;;;;;;7.00;4.35;;;;;;;;;;5071833;28;20020;-80
2022/12/08 05:33:40;;;;;;;5.55;3.60;;;;;;;;;;5071430;28;20029;-82
2022/12/08 05:36:07;;;;;;;8.75;4.30;;;;;;;;;;5070628;28;20476;-83
2022/12/08 05:38:32;;;;;;;5.28;4.40;;;;;;;;;;5071884;28;20109;-82
2022/12/08 05:40:58;;;;;;;8.45;4.30;;;;;;;;;;5071325;28;20056;-82
2022/12/08 05:43:23;;;;;;;6.38;4.88;;;;;;;;;;5069176;28;20045;-83
2022/12/08 05:45:49;;;;;;;7.65;5.18;;;;;;;;;;5071371;28;20440;-82
2022/12/08 05:48:15;;;;;;;8.05;6.78;;;;;;;;;;5069564;28;20051;-82
2022/12/08 05:50:45;;;;;;;9.90;5.40;;;;;;;;;;5068479;28;20032;-82
2022/12/08 05:53:11;;;;;;;10.13;6.40;;;;;;;;;;5069525;28;20107;-82
2022/12/08 05:55:36;;;;;;;8.90;5.70;;;;;;;;;;5069704;28;20420;-82
2022/12/08 05:58:01;;;;;;;7.60;5.28;;;;;;;;;;5070886;28;20055;-82
2022/12/08 06:00:27;;;;;;;6.25;4.65;;;;;;;;;;5071549;28;20040;-82
2022/12/08 06:02:52;;;;;;;9.30;5.70;;;;;;;;;;5071760;28;20020;-83
2022/12/08 06:05:18;;;;;;;7.50;5.10;;;;;;;;;;5068479;28;20028;-82
2022/12/08 06:07:43;;;;;;;7.00;3.35;;;;;;;;;;5071895;28;20021;-82
2022/12/08 06:10:09;;;;;;;6.72;4.38;;;;;;;;;;5071859;28;20032;-82
2022/12/08 06:12:34;;;;;;;4.80;3.78;;;;;;;;;;5069880;28;20036;-82
2022/12/08 06:15:00;;;;;;;3.40;2.65;;;;;;;;;;5070805;28;20379;-81
2022/12/08 06:17:25;;;;;;;3.90;3.08;;;;;;;;;;5070260;28;20024;-82
2022/12/08 06:19:50;;;;;;;3.83;3.08;;;;;;;;;;5071896;28;20036;-83
2022/12/08 06:22:16;;;;;;;8.65;3.97;;;;;;;;;;5069413;28;20421;-81
2022/12/08 06:24:41;;;;;;;4.32;3.15;;;;;;;;;;5069594;28;20020;-83
2022/12/08 06:27:07;;;;;;;7.75;5.05;;;;;;;;;;5070198;28;20047;-82
2022/12/08 06:29:32;;;;;;;6.53;3.25;;;;;;;;;;5069631;28;20059;-81
2022/12/08 06:31:57;;;;;;;9.40;4.47;;;;;;;;;;5069209;28;20028;-83
2022/12/08 06:34:23;;;;;;;4.72;2.60;;;;;;;;;;5069664;28;20070;-82
2022/12/08 06:36:48;;;;;;;7.30;4.80;;;;;;;;;;5069131;28;20054;-82
2022/12/08 06:39:13;;;;;;;10.45;5.72;;;;;;;;;;5069780;28;20043;-82
2022/12/08 06:42:42;;;;;;;6.35;3.17;;;;;;;;;;5069416;28;20380;-80
2022/12/08 06:44:24;;;;;;;11.05;3.88;;;;;;;;;;5068813;28;20181;-80
2022/12/08 06:46:50;;;;;;;4.05;2.67;;;;;;;;;;5070711;28;20509;-80
2022/12/08 06:49:15;;;;;;;3.28;3.00;;;;;;;;;;5069988;28;20032;-81
2022/12/08 06:51:41;;;;;;;2.72;2.47;;;;;;;;;;5070803;28;20028;-82
2022/12/08 06:54:06;;;;;;;3.47;3.05;;;;;;;;;;5071716;28;20092;-81
2022/12/08 06:56:31;;;;;;;4.82;3.30;;;;;;;;;;5071173;28;20135;-81
2022/12/08 06:58:57;;;;;;;3.55;2.20;;;;;;;;;;5070621;28;20491;-82
2022/12/08 07:01:22;;;;;;;11.02;6.80;;;;;;;;;;5072014;28;20598;-82
2022/12/08 07:03:48;;;;;;;6.32;3.95;;;;;;;;;;5071983;28;20136;-82
2022/12/08 07:06:23;;;;;;;6.93;3.75;;;;;;;;;;5072069;28;20380;-82
2022/12/08 07:08:49;;;;;;;5.35;3.28;;;;;;;;;;5074049;28;20123;-82
2022/12/08 07:11:14;;;;;;;5.32;3.58;;;;;;;;;;5076337;28;20512;-82
2022/12/08 07:13:40;;;;;;;5.00;4.43;;;;;;;;;;5075535;28;20029;-82
2022/12/08 07:16:10;;;;;;;9.23;6.03;;;;;;;;;;5076052;28;20434;-83
2022/12/08 07:18:37;;;;;;;14.65;8.50;;;;;;;;;;5074553;28;20476;-81
2022/12/08 07:21:05;;;;;;;19.48;9.60;;;;;;;;;;5076321;28;20048;-82
2022/12/08 07:23:30;;;;;;;14.75;9.70;;;;;;;;;;5073962;28;20074;-82
2022/12/08 07:26:09;;;;;;;10.13;7.72;;;;;;;;;;5075629;28;20130;-81
2022/12/08 07:28:36;;;;;;;15.95;8.77;;;;;;;;;;5074070;28;20480;-81
2022/12/08 07:31:02;;;;;;;18.92;9.45;;;;;;;;;;5074708;28;20024;-81
2022/12/08 07:33:27;;;;;;;13.18;8.02;;;;;;;;;;5076514;28;20386;-81
2022/12/08 07:35:57;;;;;;;13.05;7.65;;;;;;;;;;5074721;28;20020;-81
2022/12/08 07:38:24;;;;;;;9.60;7.35;;;;;;;;;;5073236;28;20028;-81
2022/12/08 07:40:50;;;;;;;12.68;9.15;;;;;;;;;;5073512;28;20497;-81
2022/12/08 07:43:16;;;;;;;13.70;8.20;;;;;;;;;;5074833;28;20028;-81
2022/12/08 07:45:41;;;;;;;11.63;8.18;;;;;;;;;;5075097;28;20101;-81
2022/12/08 07:48:07;;;;;;;9.82;6.72;;;;;;;;;;5073278;28;20028;-82
2022/12/08 07:50:32;;;;;;;14.25;8.65;;;;;;;;;;5073622;28;20026;-81
2022/12/08 07:52:58;;;;;;;22.10;9.80;;;;;;;;;;5074652;28;20534;-81
2022/12/08 07:55:24;;;;;;;19.95;10.23;;;;;;;;;;5074311;28;20055;-81
2022/12/08 07:57:50;;;;;;;23.02;14.60;;;;;;;;;;5073214;28;20062;-81
2022/12/08 08:00:16;;;;;;;16.48;11.68;;;;;;;;;;5074302;28;20095;-82
2022/12/08 08:02:42;;;;;;;46.60;18.77;;;;;;;;;;5072715;28;20044;-81
2022/12/08 08:05:08;;;;;;;25.92;13.13;;;;;;;;;;5075209;28;20032;-81
2022/12/08 08:07:33;;;;;;;17.45;11.80;;;;;;;;;;5070593;28;20024;-82
2022/12/08 08:10:02;;;;;;;27.30;10.77;;;;;;;;;;5073384;28;20033;-81
2022/12/08 08:12:28;;;;;;;15.88;11.48;;;;;;;;;;5072899;28;21418;-81
2022/12/08 08:14:53;;;;;;;17.83;10.02;;;;;;;;;;5073070;28;20024;-81
2022/12/08 08:17:19;;;;;;;16.48;11.43;;;;;;;;;;5073326;28;20024;-81
2022/12/08 08:19:54;;;;;;;15.43;11.20;;;;;;;;;;5073683;28;20035;-80
2022/12/08 08:22:19;;;;;;;34.97;15.65;;;;;;;;;;5073519;28;20040;-81
2022/12/08 08:24:45;;;;;;;27.08;15.65;;;;;;;;;;5072978;28;20472;-79
2022/12/08 08:27:10;;;;;;;25.95;16.52;;;;;;;;;;5072413;28;20025;-79
2022/12/08 08:29:35;;;;;;;17.60;12.00;;;;;;;;;;5070113;28;20081;-81
2022/12/08 08:32:01;;;;;;;24.85;14.18;;;;;;;;;;5072295;28;20028;-80
2022/12/08 08:34:26;;;;;;;20.65;11.75;;;;;;;;;;5072251;28;20104;-81
2022/12/08 08:36:52;;;;;;;11.93;9.20;;;;;;;;;;5071878;28;20115;-82
2022/12/08 08:39:17;;;;;;;14.98;10.02;;;;;;;;;;5072898;28;20625;-80
2022/12/08 08:41:46;;;;;;;12.13;8.80;;;;;;;;;;5072317;28;20570;-81
2022/12/08 08:44:13;;;;;;;13.77;9.32;;;;;;;;;;5069908;28;20579;-81
2022/12/08 08:46:39;;;;;;;13.38;10.20;;;;;;;;;;5070255;28;20448;-82
2022/12/08 08:49:05;;;;;;;13.18;10.00;;;;;;;;;;5070943;28;20103;-82
2022/12/08 08:51:30;;;;;;;22.85;9.57;;;;;;;;;;5070172;28;20111;-80
2022/12/08 08:53:59;;;;;;;21.27;11.15;;;;;;;;;;5072583;28;20059;-82
2022/12/08 08:56:24;;;;;;;25.15;12.45;;;;;;;;;;5071777;28;20040;-81
2022/12/08 08:58:51;;;;;;;16.55;11.57;;;;;;;;;;5071241;28;20035;-80
2022/12/08 09:01:19;;;;;;;17.20;11.15;;;;;;;;;;5071144;28;20024;-81
2022/12/08 09:03:46;;;;;;;20.02;11.52;;;;;;;;;;5070501;28;20085;-80
2022/12/08 09:06:13;;;;;;;21.63;13.20;;;;;;;;;;5070990;28;20491;-80
2022/12/08 09:08:39;;;;;;;19.45;12.25;;;;;;;;;;5071021;28;20059;-83
2022/12/08 09:11:05;;;;;;;21.10;12.45;;;;;;;;;;5072644;28;20405;-83
2022/12/08 09:13:30;;;;;;;18.70;11.38;;;;;;;;;;5071762;28;20070;-82
2022/12/08 09:15:56;;;;;;;19.15;12.30;;;;;;;;;;5072346;28;20073;-80
2022/12/08 09:18:21;;;;;;;23.30;12.82;;;;;;;;;;5070278;28;20622;-83
2022/12/08 09:20:46;;;;;;;20.52;9.68;;;;;;;;;;5070166;28;20043;-83
2022/12/08 09:23:12;;;;;;;15.43;10.45;;;;;;;;;;5068585;28;20507;-81
2022/12/08 09:25:37;;;;;;;24.70;13.85;;;;;;;;;;5069764;28;20472;-81
2022/12/08 09:28:03;;;;;;;21.17;13.93;;;;;;;;;;5071986;28;20075;-81
2022/12/08 09:30:28;;;;;;;17.40;10.82;;;;;;;;;;5070282;28;20040;-83
2022/12/08 09:32:54;;;;;;;24.00;11.13;;;;;;;;;;5069822;28;20103;-82
2022/12/08 09:35:19;;;;;;;16.38;9.55;;;;;;;;;;5071276;28;20036;-83
2022/12/08 09:37:45;;;;;;;13.80;9.52;;;;;;;;;;5070019;28;20047;-81
2022/12/08 09:40:15;;;;;;;18.92;11.75;;;;;;;;;;5070434;28;20052;-82
2022/12/08 09:43:09;;;;;;;17.33;11.75;;;;;;;;;;5069457;28;20056;-82
2022/12/08 09:45:35;;;;;;;17.98;10.18;;;;;;;;;;5067412;28;20033;-81
2022/12/08 09:48:05;;;;;;;12.13;9.07;;;;;;;;;;5069471;28;20460;-81
2022/12/08 09:50:34;;;;;;;18.23;11.32;;;;;;;;;;5069395;28;20101;-81
2022/12/08 09:53:13;;;;;;;15.85;10.77;;;;;;;;;;5067471;28;20384;-81
2022/12/08 09:55:47;;;;;;;21.92;13.63;;;;;;;;;;5067393;28;20032;-83
2022/12/08 09:58:46;;;;;;;15.50;12.27;;;;;;;;;;5070061;28;20032;-81
2022/12/08 10:01:13;;;;;;;22.90;14.07;;;;;;;;;;5068051;28;20049;-81
2022/12/08 10:03:39;;;;;;;18.13;9.88;;;;;;;;;;5069777;28;20051;-80
2022/12/08 10:06:42;;;;;;;17.65;10.13;;;;;;;;;;5068957;28;20082;-81
2022/12/08 10:09:46;;;;;;;11.23;8.25;;;;;;;;;;5069703;28;20028;-82
2022/12/08 10:12:32;;;;;;;11.68;8.15;;;;;;;;;;5063247;28;20494;-81
2022/12/08 10:15:29;;;;;;;13.93;8.70;;;;;;;;;;5067389;28;20103;-81
2022/12/08 10:17:59;;;;;;;13.85;8.65;;;;;;;;;;5068284;28;20029;-82
2022/12/08 10:20:39;;;;;;;14.63;9.05;;;;;;;;;;5068956;28;20029;-82
2022/12/08 10:23:26;;;;;;;15.52;9.00;;;;;;;;;;5064760;28;20115;-82
2022/12/08 10:26:00;;;;;;;11.10;7.43;;;;;;;;;;5068021;28;20067;-82
2022/12/08 10:28:25;;;;;;;19.90;8.35;;;;;;;;;;5070712;28;20518;-83
2022/12/08 10:30:51;;;;;;;17.08;9.15;;;;;;;;;;5069770;28;20025;-81
2022/12/08 10:33:19;;;;;;;11.02;6.65;;;;;;;;;;5070448;28;20092;-83
2022/12/08 10:35:53;;;;;;;4.30;2.67;;;;;;;;;;5070677;28;20029;-81
2022/12/08 10:38:27;;;;;;;6.93;2.92;;;;;;;;;;5069519;28;20060;-82
2022/12/08 10:41:00;;;;;;;4.32;2.33;;;;;;;;;;5070913;28;20035;-80
2022/12/08 10:43:26;;;;;;;2.67;2.05;;;;;;;;;;5072070;28;20393;-82
2022/12/08 10:45:53;;;;;;;5.78;2.40;;;;;;;;;;5073261;28;20063;-82
2022/12/08 10:48:25;;;;;;;2.08;1.85;;;;;;;;;;5071024;28;20024;-80
2022/12/08 10:50:58;;;;;;;11.02;5.78;;;;;;;;;;5070314;28;20028;-80
2022/12/08 10:53:27;;;;;;;7.88;6.30;;;;;;;;;;5071521;28;20024;-80
2022/12/08 10:56:02;;;;;;;10.85;5.78;;;;;;;;;;5072809;28;20048;-81
2022/12/08 10:58:39;;;;;;;9.85;4.97;;;;;;;;;;5071967;28;20036;-79
2022/12/08 11:01:08;;;;;;;12.63;5.57;;;;;;;;;;5072125;28;20028;-81
2022/12/08 11:03:42;;;;;;;6.50;3.87;;;;;;;;;;5072860;28;20043;-82
2022/12/08 11:06:18;;;;;;;4.32;3.28;;;;;;;;;;5071135;28;20017;-82
2022/12/08 11:08:50;;;;;;;5.28;2.80;;;;;;;;;;5073425;28;20028;-80
2022/12/08 11:11:17;;;;;;;4.18;2.38;;;;;;;;;;5070978;28;20028;-80
2022/12/08 11:13:43;;;;;;;2.80;2.35;;;;;;;;;;5072160;28;20040;-80
2022/12/08 11:16:13;;;;;;;4.38;2.35;;;;;;;;;;5071960;28;20036;-81
2022/12/08 11:18:45;;;;;;;4.43;1.58;;;;;;;;;;5073523;28;20021;-81
2022/12/08 11:21:18;;;;;;;7.28;2.75;;;;;;;;;;5069201;28;20105;-80
2022/12/08 11:23:49;;;;;;;5.45;2.35;;;;;;;;;;5070355;28;20369;-81
2022/12/08 11:27:00;;;;;;;4.60;2.38;;;;;;;;;;5071761;28;20503;-80
2022/12/08 11:29:31;;;;;;;3.97;2.55;;;;;;;;;;5068116;28;20033;-80
2022/12/08 11:32:01;;;;;;;3.42;2.13;;;;;;;;;;5071790;28;20461;-80
2022/12/08 11:34:55;;;;;;;4.22;2.08;;;;;;;;;;5073725;28;20035;-80
2022/12/08 11:37:27;;;;;;;2.85;2.00;;;;;;;;;;5064102;28;20504;-79
2022/12/08 11:39:56;;;;;;;2.30;1.88;;;;;;;;;;5073489;28;20024;-80
2022/12/08 11:42:27;;;;;;;3.63;2.20;;;;;;;;;;5074919;28;20025;-80
2022/12/08 11:45:06;;;;;;;3.03;1.80;;;;;;;;;;5074893;28;20124;-80
2022/12/08 11:47:42;;;;;;;2.72;1.75;;;;;;;;;;5073017;28;20047;-80
2022/12/08 11:50:38;;;;;;;7.93;4.15;;;;;;;;;;5074286;28;20460;-80
2022/12/08 11:53:11;;;;;;;6.75;4.00;;;;;;;;;;5067976;28;20040;-80
2022/12/08 11:55:57;;;;;;;7.50;4.80;;;;;;;;;;5066736;28;20060;-81
2022/12/08 11:58:35;;;;;;;9.80;5.38;;;;;;;;;;5069934;28;20361;-80
2022/12/08 12:01:03;;;;;;;10.23;4.35;;;;;;;;;;5084618;28;20567;-80
2022/12/08 12:04:00;;;;;;;5.47;3.92;;;;;;;;;;5063136;28;20463;-81
2022/12/08 12:06:50;;;;;;;4.70;3.42;;;;;;;;;;5065912;28;20036;-80
2022/12/08 12:09:42;;;;;;;13.40;7.55;;;;;;;;;;5070506;28;20028;-80
2022/12/08 12:12:25;;;;;;;12.13;5.15;;;;;;;;;;5067213;28;20111;-81
2022/12/08 12:15:10;;;;;;;11.30;6.97;;;;;;;;;;5069172;28;20089;-81
2022/12/08 12:18:04;;;;;;;11.73;6.28;;;;;;;;;;5070897;28;20476;-81
2022/12/08 12:20:34;;;;;;;9.02;5.80;;;;;;;;;;5069758;28;20040;-80
2022/12/08 12:23:01;;;;;;;;;;;;;;;;;;5072531;28;20032;-82
2022/12/08 12:25:27;;;;;;;9.80;5.10;;;;;;;;;;5070960;28;19916;-80
2022/12/08 12:27:58;;;;;;;7.80;4.68;;;;;;;;;;5069690;28;20486;-80
2022/12/08 12:30:26;;;;;;;15.00;5.25;;;;;;;;;;5067964;28;20118;-82
2022/12/08 12:32:58;;;;;;;8.77;6.38;;;;;;;;;;5071399;28;20025;-81
2022/12/08 12:35:33;;;;;;;8.13;5.10;;;;;;;;;;5070137;28;20357;-80
2022/12/08 12:38:59;;;;;;;12.25;5.43;;;;;;;;;;5070133;28;20024;-81
2022/12/08 12:40:58;;;;;;;9.85;5.97;;;;;;;;;;5070977;28;20021;-80
2022/12/08 12:43:30;;;;;;;8.00;4.32;;;;;;;;;;5067470;28;20379;-81
2022/12/08 12:46:28;;;;;;;8.57;5.22;;;;;;;;;;5099431;28;20040;-80
2022/12/08 12:49:31;;;;;;;14.38;4.88;;;;;;;;;;5067477;28;20484;-79
2022/12/08 12:51:57;;;;;;;9.63;4.90;;;;;;;;;;5070760;28;20479;-82
2022/12/08 12:54:28;;;;;;;6.28;4.40;;;;;;;;;;5071742;28;20036;-80
2022/12/08 12:57:19;;;;;;;7.88;4.00;;;;;;;;;;5070138;28;20043;-81
2022/12/08 13:00:16;;;;;;;18.45;4.88;;;;;;;;;;5069891;28;20033;-83
2022/12/08 13:02:47;;;;;;;7.68;3.70;;;;;;;;;;5069640;28;20024;-81
2022/12/08 13:05:25;;;;;;;5.35;4.00;;;;;;;;;;5068962;28;20036;-82
2022/12/08 13:08:01;;;;;;;7.95;5.78;;;;;;;;;;5070574;28;20033;-82
2022/12/08 13:10:32;;;;;;;6.45;3.55;;;;;;;;;;5069286;28;20024;-82
2022/12/08 13:13:19;;;;;;;6.82;4.10;;;;;;;;;;5070734;28;20028;-81
2022/12/08 13:16:08;;;;;;;4.70;2.92;;;;;;;;;;5064351;28;20060;-81
2022/12/08 13:19:03;;;;;;;6.65;4.15;;;;;;;;;;5066770;28;20034;-82
2022/12/08 13:21:38;;;;;;;8.75;4.40;;;;;;;;;;5068219;28;20044;-81
2022/12/08 13:24:13;;;;;;;9.88;4.45;;;;;;;;;;5069785;28;20028;-80
2022/12/08 13:26:48;;;;;;;9.48;3.30;;;;;;;;;;5068439;28;20025;-82
2022/12/08 13:29:18;;;;;;;5.38;3.10;;;;;;;;;;5067077;28;20029;-82
2022/12/08 13:31:45;;;;;;;6.22;4.05;;;;;;;;;;5070828;28;20877;-81
2022/12/08 13:34:29;;;;;;;8.00;4.22;;;;;;;;;;5069239;28;20028;-80
2022/12/08 13:37:07;;;;;;;6.40;4.50;;;;;;;;;;5070875;28;20461;-82
2022/12/08 13:39:38;;;;;;;6.95;4.18;;;;;;;;;;5068682;28;20032;-80
2022/12/08 13:42:16;;;;;;;9.75;5.35;;;;;;;;;;5068669;28;20047;-81
2022/12/08 13:45:09;;;;;;;7.97;4.82;;;;;;;;;;5066956;28;20721;-81
2022/12/08 13:48:10;;;;;;;8.63;5.13;;;;;;;;;;5062302;28;20032;-83
2022/12/08 13:50:43;;;;;;;8.00;4.38;;;;;;;;;;5063345;28;20067;-83
2022/12/08 13:53:20;;;;;;;5.93;3.47;;;;;;;;;;5100617;28;20025;-83
2022/12/08 13:55:49;;;;;;;2.92;2.42;;;;;;;;;;5069707;28;20092;-83
2022/12/08 13:58:24;;;;;;;7.45;3.10;;;;;;;;;;5070688;28;20085;-82
2022/12/08 14:01:05;;;;;;;5.35;3.55;;;;;;;;;;5069887;28;20078;-80
2022/12/08 14:03:56;;;;;;;6.07;3.88;;;;;;;;;;5067386;28;20040;-82
2022/12/08 14:06:35;;;;;;;5.55;3.47;;;;;;;;;;5069595;28;20062;-82
2022/12/08 14:09:05;;;;;;;4.65;3.55;;;;;;;;;;5065293;28;20087;-81
2022/12/08 14:11:38;;;;;;;4.50;2.15;;;;;;;;;;5069934;28;20112;-81
2022/12/08 14:14:11;;;;;;;9.60;4.13;;;;;;;;;;5070571;28;20032;-80
2022/12/08 14:17:00;;;;;;;8.30;2.97;;;;;;;;;;5072905;28;20093;-81
2022/12/08 14:19:28;;;;;;;7.32;3.55;;;;;;;;;;5074012;28;20036;-81
2022/12/08 14:22:06;;;;;;;7.40;4.82;;;;;;;;;;5073695;28;20115;-81
2022/12/08 14:24:32;;;;;;;6.40;3.80;;;;;;;;;;5074946;28;20032;-81
2022/12/08 14:27:04;;;;;;;8.30;4.10;;;;;;;;;;5070840;28;20029;-83
2022/12/08 14:29:45;;;;;;;3.83;3.13;;;;;;;;;;5073959;28;20112;-82
2022/12/08 14:32:33;;;;;;;3.55;2.58;;;;;;;;;;5073624;28;20476;-81
2022/12/08 14:35:07;;;;;;;9.02;3.40;;;;;;;;;;5073301;28;20024;-80
2022/12/08 14:37:54;;;;;;;6.13;3.28;;;;;;;;;;5074461;28;20028;-83
2022/12/08 14:40:33;;;;;;;3.88;2.88;;;;;;;;;;5073612;28;20047;-81
2022/12/08 14:43:07;;;;;;;5.82;3.38;;;;;;;;;;5071891;28;20473;-82
2022/12/08 14:45:39;;;;;;;4.97;3.28;;;;;;;;;;5089077;28;20044;-82
2022/12/08 14:48:30;;;;;;;7.28;3.58;;;;;;;;;;5071399;28;20128;-81
2022/12/08 14:51:10;;;;;;;16.00;4.00;;;;;;;;;;5074430;28;20100;-83
2022/12/08 14:53:41;;;;;;;4.43;2.85;;;;;;;;;;5073465;28;20074;-79
2022/12/08 14:56:08;;;;;;;6.50;3.30;;;;;;;;;;5073922;28;20122;-81
2022/12/08 14:58:33;;;;;;;4.53;3.17;;;;;;;;;;5073900;28;20107;-81
2022/12/08 15:00:59;;;;;;;7.30;3.38;;;;;;;;;;5073464;28;20429;-83
2022/12/08 15:03:28;;;;;;;9.32;4.30;;;;;;;;;;5074285;28;20377;-82
2022/12/08 15:06:04;;;;;;;13.20;7.60;;;;;;;;;;5072641;28;20024;-82
2022/12/08 15:08:30;;;;;;;8.77;5.53;;;;;;;;;;5072381;28;20112;-82